Time;durP1;ratioP1;P1;durP2;ratioP2;P2;SDS_P1;SDS_P2;PMS_P1;PMS_P2;Temp;Humidity;BMP_temperature;BMP_pressure;BME280_temperature;BME280_humidity;BME280_pressure;Samples;Min_cycle;Max_cycle;Signal;HPM_P1;HPM_P2
2023/08/08 00:00:46;;;;;;;1999.90;999.90;;;;;;;12.67;100.00;95543.94;4996007;28;20199;-49
2023/08/08 00:03:12;;;;;;;1999.90;999.90;;;;;;;12.68;100.00;95545.50;4995718;28;20199;-55
2023/08/08 00:05:37;;;;;;;1999.90;999.90;;;;;;;12.71;100.00;95539.16;4995924;28;20207;-52
2023/08/08 00:08:03;;;;;;;1999.90;999.90;;;;;;;12.81;100.00;95533.56;4995829;28;20206;-55
2023/08/08 00:10:28;;;;;;;1999.90;999.90;;;;;;;12.85;100.00;95538.97;4995341;28;20251;-54
2023/08/08 00:12:54;;;;;;;1999.90;999.90;;;;;;;12.90;100.00;95535.78;4996421;28;20178;-51
2023/08/08 00:15:19;;;;;;;1999.90;999.90;;;;;;;12.96;100.00;95539.59;4995811;28;20202;-50
2023/08/08 00:17:44;;;;;;;1999.90;999.90;;;;;;;13.01;100.00;95537.19;4995567;28;20259;-53
2023/08/08 00:20:10;;;;;;;1999.90;999.90;;;;;;;13.07;100.00;95540.25;4995516;28;20237;-52
2023/08/08 00:22:35;;;;;;;1999.90;999.90;;;;;;;13.12;100.00;95543.28;4995208;28;20283;-51
2023/08/08 00:25:01;;;;;;;1999.90;999.90;;;;;;;13.19;100.00;95540.44;4994674;28;20208;-53
2023/08/08 00:27:26;;;;;;;1999.90;999.90;;;;;;;13.19;100.00;95537.69;4995496;28;20599;-54
2023/08/08 00:29:53;;;;;;;1999.90;999.90;;;;;;;13.26;100.00;95537.56;4995318;28;20569;-53
2023/08/08 00:32:18;;;;;;;1999.90;999.90;;;;;;;13.27;100.00;95538.38;4995556;28;20227;-52
2023/08/08 00:34:44;;;;;;;1999.90;999.90;;;;;;;13.34;100.00;95538.25;4995355;28;20202;-51
2023/08/08 00:37:09;;;;;;;1999.90;999.90;;;;;;;13.36;100.00;95541.34;4995471;28;20212;-49
2023/08/08 00:39:34;;;;;;;1999.90;999.90;;;;;;;13.34;100.00;95538.25;4995457;28;20210;-54
2023/08/08 00:42:00;;;;;;;1999.90;999.90;;;;;;;13.35;100.00;95537.06;4995342;28;20207;-53
2023/08/08 00:44:25;;;;;;;1999.90;999.90;;;;;;;13.34;100.00;95532.75;4995690;28;20172;-53
2023/08/08 00:46:50;;;;;;;1999.90;999.90;;;;;;;13.37;100.00;95540.16;4995519;28;20250;-50
2023/08/08 00:49:16;;;;;;;1999.90;999.90;;;;;;;13.42;100.00;95534.19;4995242;28;20242;-56
2023/08/08 00:51:42;;;;;;;1999.90;999.90;;;;;;;13.47;100.00;95532.94;4995379;28;20211;-53
2023/08/08 00:54:08;;;;;;;1999.90;999.90;;;;;;;13.43;100.00;95535.72;4994976;28;20203;-53
2023/08/08 00:56:35;;;;;;;1999.90;999.90;;;;;;;13.46;100.00;95536.88;4995211;28;20203;-53
2023/08/08 00:59:01;;;;;;;1999.90;999.90;;;;;;;13.45;100.00;95533.38;4994956;28;20208;-51
2023/08/08 01:01:26;;;;;;;1999.90;999.90;;;;;;;13.48;100.00;95524.31;4994913;28;20199;-53
2023/08/08 01:03:53;;;;;;;1999.90;999.90;;;;;;;13.45;100.00;95527.88;4994697;28;20199;-51
2023/08/08 01:06:37;;;;;;;1999.90;999.90;;;;;;;13.44;100.00;95520.81;4994789;28;20195;-54
2023/08/08 01:09:15;;;;;;;1999.90;999.90;;;;;;;13.44;100.00;95523.56;4995080;28;20266;-53
2023/08/08 01:11:41;;;;;;;1999.90;999.90;;;;;;;13.39;100.00;95518.56;4994514;28;20207;-54
2023/08/08 01:14:08;;;;;;;1999.90;999.90;;;;;;;13.38;100.00;95522.50;4995089;28;20204;-55
2023/08/08 01:16:33;;;;;;;1999.90;999.90;;;;;;;13.33;100.00;95531.19;4994656;28;20230;-53
2023/08/08 01:18:59;;;;;;;1999.90;999.90;;;;;;;13.32;100.00;95522.22;4994594;28;20204;-54
2023/08/08 01:21:29;;;;;;;1999.90;999.90;;;;;;;13.36;100.00;95519.41;4994569;28;20564;-54
2023/08/08 01:24:17;;;;;;;1999.90;999.90;;;;;;;13.32;100.00;95523.41;4994315;28;20214;-52
2023/08/08 01:26:43;;;;;;;1999.90;999.90;;;;;;;13.31;100.00;95517.13;4994580;28;20207;-53
2023/08/08 01:29:09;;;;;;;1999.90;999.90;;;;;;;13.29;100.00;95517.56;4994340;28;20230;-51
2023/08/08 01:31:34;;;;;;;1999.90;999.90;;;;;;;13.27;100.00;95510.94;4994911;28;20630;-50
2023/08/08 01:33:59;;;;;;;1999.90;999.90;;;;;;;13.23;100.00;95510.22;4994822;28;20198;-55
2023/08/08 01:36:32;;;;;;;1999.90;999.90;;;;;;;13.16;100.00;95500.13;4994794;28;20242;-51
2023/08/08 01:39:04;;;;;;;1999.90;999.90;;;;;;;13.11;100.00;95502.56;4993839;28;20231;-53
2023/08/08 01:41:32;;;;;;;1999.90;999.90;;;;;;;13.06;100.00;95503.06;4994662;28;20199;-54
2023/08/08 01:43:59;;;;;;;1999.90;999.90;;;;;;;12.99;100.00;95505.91;4994148;28;20200;-53
2023/08/08 01:46:25;;;;;;;1999.90;999.90;;;;;;;12.96;100.00;95503.97;4994402;28;20245;-53
2023/08/08 01:48:51;;;;;;;1999.90;999.90;;;;;;;12.89;100.00;95495.84;4994201;28;20204;-51
2023/08/08 01:51:17;;;;;;;1999.90;999.90;;;;;;;12.82;100.00;95491.25;4994642;28;20279;-53
2023/08/08 01:53:42;;;;;;;1999.90;999.90;;;;;;;12.76;100.00;95489.41;4993922;28;20191;-54
2023/08/08 01:56:08;;;;;;;1999.90;999.90;;;;;;;12.70;100.00;95482.81;4994594;28;20242;-53
2023/08/08 01:58:33;;;;;;;1999.90;999.90;;;;;;;12.64;100.00;95489.97;4994301;28;20188;-54
2023/08/08 02:00:59;;;;;;;1999.90;999.90;;;;;;;12.56;100.00;95496.72;4995367;28;20617;-52
2023/08/08 02:03:24;;;;;;;1999.90;999.90;;;;;;;12.51;100.00;95491.72;4994192;28;20200;-52
2023/08/08 02:05:49;;;;;;;1999.90;999.90;;;;;;;12.45;100.00;95483.19;4994378;28;20203;-52
2023/08/08 02:08:15;;;;;;;1999.90;999.90;;;;;;;12.38;100.00;95480.53;4993765;28;20206;-48
2023/08/08 02:10:40;;;;;;;1999.90;999.90;;;;;;;12.35;100.00;95480.59;4993852;28;20242;-52
2023/08/08 02:13:05;;;;;;;1999.90;999.90;;;;;;;12.29;100.00;95479.50;4994143;28;20223;-52
2023/08/08 02:15:31;;;;;;;1999.90;999.90;;;;;;;12.23;100.00;95478.41;4993841;28;20286;-50
2023/08/08 02:17:56;;;;;;;1999.90;999.90;;;;;;;12.16;100.00;95470.28;4993788;28;20199;-51
2023/08/08 02:20:21;;;;;;;1999.90;999.90;;;;;;;12.12;100.00;95475.03;4994429;28;20641;-53
2023/08/08 02:22:47;;;;;;;1999.90;999.90;;;;;;;12.09;100.00;95470.41;4993926;28;20192;-49
2023/08/08 02:25:12;;;;;;;1999.90;999.90;;;;;;;12.08;100.00;95466.09;4994018;28;20258;-52
2023/08/08 02:27:37;;;;;;;1999.90;999.90;;;;;;;12.03;100.00;95461.88;4994040;28;20214;-56
2023/08/08 02:30:03;;;;;;;1999.90;999.90;;;;;;;11.98;100.00;95465.03;4993737;28;20245;-49
2023/08/08 02:32:28;;;;;;;1999.90;999.90;;;;;;;11.95;100.00;95465.09;4993824;28;20562;-54
2023/08/08 02:34:53;;;;;;;1999.90;999.90;;;;;;;11.91;100.00;95456.16;4993659;28;20241;-52
2023/08/08 02:37:19;;;;;;;1999.90;999.90;;;;;;;11.84;100.00;95456.25;4994204;28;20328;-54
2023/08/08 02:39:44;;;;;;;1999.90;999.90;;;;;;;11.84;100.00;95458.97;4993966;28;20241;-52
2023/08/08 02:42:10;;;;;;;1999.90;999.90;;;;;;;11.80;100.00;95450.03;4993900;28;20230;-54
2023/08/08 02:44:35;;;;;;;1999.90;999.90;;;;;;;11.79;100.00;95464.88;4993520;28;20195;-53
2023/08/08 02:47:00;;;;;;;1999.90;999.90;;;;;;;11.75;100.00;95456.72;4994961;28;20257;-50
2023/08/08 02:49:26;;;;;;;1999.90;999.90;;;;;;;11.72;100.00;95462.22;4997509;28;20206;-51
2023/08/08 02:51:51;;;;;;;1999.90;999.90;;;;;;;11.64;100.00;95453.34;4997292;28;20270;-52
2023/08/08 02:54:16;;;;;;;1999.90;999.90;;;;;;;11.58;100.00;95452.19;4997213;28;20195;-54
2023/08/08 02:56:42;;;;;;;1999.90;999.90;;;;;;;11.52;100.00;95453.06;4997242;28;20590;-52
2023/08/08 02:59:07;;;;;;;1999.90;999.90;;;;;;;11.46;100.00;95454.69;4997236;28;20218;-54
2023/08/08 03:01:32;;;;;;;1999.90;999.90;;;;;;;11.38;100.00;95443.06;4996882;28;20581;-54
2023/08/08 03:03:58;;;;;;;1999.90;999.90;;;;;;;11.35;100.00;95452.06;4997047;28;20178;-51
2023/08/08 03:06:23;;;;;;;1999.90;999.90;;;;;;;11.30;100.00;95446.25;4997272;28;20287;-55
2023/08/08 03:08:48;;;;;;;1999.90;999.90;;;;;;;11.27;100.00;95444.34;4997380;28;20645;-51
2023/08/08 03:11:14;;;;;;;1999.90;999.90;;;;;;;11.26;100.00;95435.34;4996855;28;20575;-51
2023/08/08 03:13:39;;;;;;;1999.90;999.90;;;;;;;11.27;100.00;95430.66;4996781;28;20248;-51
2023/08/08 03:16:05;;;;;;;1999.90;999.90;;;;;;;11.28;100.00;95432.22;4997092;28;20252;-50
2023/08/08 03:18:30;;;;;;;1999.90;999.90;;;;;;;11.26;100.00;95423.66;4996989;28;20199;-54
2023/08/08 03:20:55;;;;;;;1999.90;999.90;;;;;;;11.25;100.00;95427.56;4996623;28;20200;-52
2023/08/08 03:23:23;;;;;;;1999.90;999.90;;;;;;;11.26;100.00;95423.66;4996847;28;20266;-51
2023/08/08 03:25:48;;;;;;;1999.90;999.90;;;;;;;11.27;100.00;95419.72;4997041;28;20218;-50
2023/08/08 03:28:14;;;;;;;1999.90;999.90;;;;;;;11.30;100.00;95416.97;4996988;28;20292;-52
2023/08/08 03:30:39;;;;;;;1999.90;999.90;;;;;;;11.34;100.00;95411.47;4996313;28;20233;-50
2023/08/08 03:33:05;;;;;;;1999.90;999.90;;;;;;;11.37;100.00;95413.38;4996360;28;20210;-52
2023/08/08 03:35:30;;;;;;;1999.90;999.90;;;;;;;11.44;100.00;95413.31;4996871;28;20216;-52
2023/08/08 03:37:55;;;;;;;1999.90;999.90;;;;;;;11.48;100.00;95414.78;4996088;28;20226;-53
2023/08/08 03:40:21;;;;;;;1999.90;999.90;;;;;;;11.53;100.00;95427.25;4996460;28;20269;-53
2023/08/08 03:42:46;;;;;;;1999.90;999.90;;;;;;;11.59;100.00;95417.44;4996612;28;20253;-53
2023/08/08 03:45:11;;;;;;;1999.90;999.90;;;;;;;11.62;100.00;95406.47;4996160;28;20360;-49
2023/08/08 03:47:37;;;;;;;1999.90;999.90;;;;;;;11.67;100.00;95410.72;4996293;28;20270;-54
2023/08/08 03:50:04;;;;;;;1999.90;999.90;;;;;;;11.72;100.00;95419.25;4996262;28;20289;-56
2023/08/08 03:52:30;;;;;;;1999.90;999.90;;;;;;;11.75;100.00;95418.44;4995897;28;20660;-51
2023/08/08 03:54:55;;;;;;;1999.90;999.90;;;;;;;11.80;100.00;95419.94;4996040;28;20207;-52
2023/08/08 03:57:20;;;;;;;1999.90;999.90;;;;;;;11.86;100.00;95419.06;4996022;28;20286;-53
2023/08/08 03:59:46;;;;;;;1999.90;999.90;;;;;;;11.90;100.00;95429.97;4995034;28;20676;-49
2023/08/08 04:02:11;;;;;;;1999.90;999.90;;;;;;;11.92;100.00;95427.59;4996159;28;20677;-52
2023/08/08 04:04:36;;;;;;;1999.90;999.90;;;;;;;11.94;100.00;95430.69;4995807;28;20615;-49
2023/08/08 04:07:02;;;;;;;1999.90;999.90;;;;;;;12.00;100.00;95443.53;4996348;28;20214;-50
2023/08/08 04:09:27;;;;;;;1999.90;999.90;;;;;;;12.07;100.00;95445.38;4996058;28;20208;-51
2023/08/08 04:11:52;;;;;;;1999.90;999.90;;;;;;;12.08;100.00;95438.72;4995508;28;20207;-50
2023/08/08 04:14:18;;;;;;;1999.90;999.90;;;;;;;12.13;100.00;95447.25;4995724;28;20206;-53
2023/08/08 04:16:43;;;;;;;1999.90;999.90;;;;;;;12.17;100.00;95445.22;4995362;28;20299;-46
2023/08/08 04:19:08;;;;;;;1999.90;999.90;;;;;;;12.19;100.00;95453.03;4995654;28;20199;-53
2023/08/08 04:21:34;;;;;;;1999.90;999.90;;;;;;;12.24;100.00;95445.13;4995768;28;20727;-54
2023/08/08 04:23:59;;;;;;;1999.90;999.90;;;;;;;12.27;100.00;95455.28;4995538;28;20568;-49
2023/08/08 04:26:25;;;;;;;1999.90;999.90;;;;;;;12.29;100.00;95454.88;4995670;28;20214;-50
2023/08/08 04:28:50;;;;;;;1999.90;999.90;;;;;;;12.33;100.00;95455.59;4995500;28;20203;-49
2023/08/08 04:31:16;;;;;;;1999.90;999.90;;;;;;;12.35;100.00;95453.22;4995363;28;20315;-52
2023/08/08 04:33:41;;;;;;;1999.90;999.90;;;;;;;12.43;100.00;95462.88;4995539;28;20261;-50
2023/08/08 04:36:06;;;;;;;1999.90;999.90;;;;;;;12.44;100.00;95458.94;4995085;28;20188;-54
2023/08/08 04:38:32;;;;;;;1999.90;999.90;;;;;;;12.47;100.00;95464.41;4995589;28;20291;-53
2023/08/08 04:40:57;;;;;;;1999.90;999.90;;;;;;;12.48;100.00;95465.94;4995694;28;20258;-52
2023/08/08 04:43:23;;;;;;;1999.90;999.90;;;;;;;12.50;100.00;95460.03;4994913;28;20200;-49
2023/08/08 04:45:48;;;;;;;1999.90;999.90;;;;;;;12.50;100.00;95463.53;4995157;28;20203;-51
2023/08/08 04:48:13;;;;;;;1999.90;999.90;;;;;;;12.52;100.00;95454.91;4995138;28;20242;-53
2023/08/08 04:50:40;;;;;;;1999.90;999.90;;;;;;;12.57;100.00;95463.44;4994995;28;20223;-49
2023/08/08 04:53:06;;;;;;;1999.90;999.90;;;;;;;12.57;100.00;95457.22;4995249;28;20675;-50
2023/08/08 04:55:31;;;;;;;1999.90;999.90;;;;;;;12.66;100.00;95455.50;4995039;28;20291;-50
2023/08/08 04:57:56;;;;;;;1999.90;999.90;;;;;;;12.71;100.00;95459.72;4995081;28;20235;-53
2023/08/08 05:00:22;;;;;;;1999.90;999.90;;;;;;;12.73;100.00;95460.09;4994676;28;20196;-51
2023/08/08 05:02:47;;;;;;;1999.90;999.90;;;;;;;12.76;100.00;95459.25;4995100;28;20195;-51
2023/08/08 05:05:13;;;;;;;1999.90;999.90;;;;;;;12.82;100.00;95463.09;4994635;28;20230;-50
2023/08/08 05:07:38;;;;;;;1999.90;999.90;;;;;;;12.83;100.00;95464.63;4994663;28;20188;-54
2023/08/08 05:10:04;;;;;;;1999.90;999.90;;;;;;;12.89;100.00;95457.47;4994738;28;20219;-54
2023/08/08 05:12:29;;;;;;;1999.90;999.90;;;;;;;12.93;100.00;95464.44;4994448;28;20199;-51
2023/08/08 05:14:55;;;;;;;1999.90;999.90;;;;;;;13.04;100.00;95467.81;4994905;28;20230;-54
2023/08/08 05:17:20;;;;;;;1999.90;999.90;;;;;;;13.05;100.00;95471.34;4994958;28;20208;-52
2023/08/08 05:19:45;;;;;;;1999.90;999.90;;;;;;;13.14;100.00;95472.38;4994654;28;20210;-52
2023/08/08 05:22:11;;;;;;;1999.90;999.90;;;;;;;13.16;100.00;95460.97;4994463;28;20204;-48
2023/08/08 05:24:36;;;;;;;1999.90;999.90;;;;;;;13.13;100.00;95467.28;4994512;28;20201;-47
2023/08/08 05:27:03;;;;;;;1999.90;999.90;;;;;;;13.17;100.00;95474.28;4994399;28;20192;-49
2023/08/08 05:29:28;;;;;;;1999.90;999.90;;;;;;;13.36;100.00;95464.53;4994405;28;20242;-49
2023/08/08 05:31:54;;;;;;;1999.90;999.90;;;;;;;13.31;100.00;95473.25;4994504;28;20223;-51
2023/08/08 05:34:19;;;;;;;1999.90;999.90;;;;;;;13.50;100.00;95467.03;4994184;28;20204;-48
2023/08/08 05:36:44;;;;;;;1999.90;999.90;;;;;;;13.69;100.00;95466.25;4994380;28;20199;-48
2023/08/08 05:39:10;;;;;;;1999.90;999.90;;;;;;;13.95;100.00;95478.34;4994280;28;20188;-50
2023/08/08 05:41:35;;;;;;;1999.90;999.90;;;;;;;14.18;100.00;95478.25;4994782;28;20215;-50
2023/08/08 05:44:00;;;;;;;1999.90;999.90;;;;;;;14.40;100.00;95482.91;4994382;28;20633;-52
2023/08/08 05:46:26;;;;;;;1999.90;999.90;;;;;;;14.72;100.00;95485.69;4994313;28;20206;-50
2023/08/08 05:48:51;;;;;;;1999.90;999.90;;;;;;;15.04;100.00;95483.00;4994422;28;20269;-54
2023/08/08 05:51:16;;;;;;;1999.90;999.90;;;;;;;15.01;100.00;95489.34;4994221;28;20219;-50
2023/08/08 05:53:42;;;;;;;1999.90;999.90;;;;;;;15.32;100.00;95492.53;4994420;28;20290;-52
2023/08/08 05:56:08;;;;;;;1999.90;999.90;;;;;;;16.33;100.00;95495.31;4994319;28;20203;-49
2023/08/08 05:58:34;;;;;;;1999.90;999.90;;;;;;;17.30;100.00;95489.22;4994239;28;20203;-49
2023/08/08 06:01:00;;;;;;;1999.90;999.90;;;;;;;17.06;100.00;95490.78;4994201;28;20351;-50
2023/08/08 06:03:26;;;;;;;1999.90;999.90;;;;;;;17.14;100.00;95494.88;4994084;28;20199;-49
2023/08/08 06:05:51;;;;;;;1999.90;999.90;;;;;;;17.03;100.00;95492.44;4994468;28;20210;-49
2023/08/08 06:08:16;;;;;;;1999.90;999.90;;;;;;;17.30;100.00;95505.78;4993728;28;20227;-51
2023/08/08 06:10:42;;;;;;;1999.90;999.90;;;;;;;17.92;100.00;95496.63;4994209;28;20236;-49
2023/08/08 06:13:08;;;;;;;1999.90;999.90;;;;;;;18.66;100.00;95505.78;4994346;28;20235;-49
2023/08/08 06:15:33;;;;;;;1999.90;999.90;;;;;;;19.84;100.00;95505.00;4993743;28;20203;-51
2023/08/08 06:17:59;;;;;;;1999.90;999.90;;;;;;;19.71;100.00;95507.16;4993959;28;20226;-46
2023/08/08 06:20:25;;;;;;;1999.90;999.90;;;;;;;19.16;100.00;95511.72;4994417;28;20208;-47
2023/08/08 06:22:51;;;;;;;1999.90;999.90;;;;;;;18.88;100.00;95512.84;4996603;28;20555;-45
2023/08/08 06:25:16;;;;;;;1999.90;999.90;;;;;;;18.63;100.00;95507.47;4997650;28;20227;-50
2023/08/08 06:27:42;;;;;;;1999.90;999.90;;;;;;;18.99;100.00;95506.88;4998044;28;20242;-49
2023/08/08 06:30:08;;;;;;;1999.90;999.90;;;;;;;19.62;100.00;95509.88;4998022;28;20307;-46
2023/08/08 06:32:34;;;;;;;1999.90;999.90;;;;;;;20.25;100.00;95512.75;4997624;28;20200;-45
2023/08/08 06:34:59;;;;;;;1999.90;999.90;;;;;;;21.00;100.00;95497.06;4997597;28;20196;-45
2023/08/08 06:37:25;;;;;;;1999.90;999.90;;;;;;;20.99;100.00;95501.88;4997760;28;20219;-47
2023/08/08 06:39:50;;;;;;;1999.90;999.90;;;;;;;21.14;100.00;95499.97;4997383;28;20290;-46
2023/08/08 06:42:15;;;;;;;1999.90;999.90;;;;;;;21.89;100.00;95506.97;4997840;28;20184;-54
2023/08/08 06:44:44;;;;;;;1999.90;999.90;;;;;;;21.76;100.00;95506.47;4997560;28;20200;-55
2023/08/08 06:47:10;;;;;;;1999.90;999.90;;;;;;;20.88;100.00;95503.56;4997043;28;20195;-56
2023/08/08 06:49:36;;;;;;;1999.90;999.90;;;;;;;21.21;100.00;95502.41;4997319;28;20211;-53
2023/08/08 06:52:02;;;;;;;1999.90;999.90;;;;;;;21.37;100.00;95501.22;4997106;28;20747;-54
2023/08/08 06:54:28;;;;;;;1999.90;999.90;;;;;;;21.68;100.00;95499.66;4997443;28;20195;-55
2023/08/08 06:56:53;;;;;;;1999.90;999.90;;;;;;;22.73;100.00;95499.06;4997249;28;20214;-55
2023/08/08 06:59:19;;;;;;;1999.90;999.90;;;;;;;23.53;100.00;95498.63;4997188;28;20219;-53
2023/08/08 07:01:44;;;;;;;1999.90;999.90;;;;;;;24.15;100.00;95496.94;4997208;28;20208;-53
2023/08/08 07:04:09;;;;;;;1999.90;999.90;;;;;;;24.71;97.10;95489.97;4996928;28;20203;-55
2023/08/08 07:06:36;;;;;;;1999.90;999.90;;;;;;;25.02;91.94;95490.03;4996773;28;20199;-55
2023/08/08 07:09:01;;;;;;;1999.90;999.90;;;;;;;25.18;87.62;95489.41;4997221;28;20210;-54
2023/08/08 07:11:27;;;;;;;1999.90;999.90;;;;;;;25.58;87.49;95486.44;4997066;28;20290;-54
2023/08/08 07:13:52;;;;;;;1999.90;999.90;;;;;;;25.94;81.37;95491.22;4997177;28;20208;-55
2023/08/08 07:16:17;;;;;;;1999.90;999.90;;;;;;;26.21;79.47;95496.22;4996837;28;20219;-56
2023/08/08 07:18:43;;;;;;;1999.90;999.90;;;;;;;25.68;79.58;95498.19;4996824;28;20254;-55
2023/08/08 07:21:08;;;;;;;1999.90;999.90;;;;;;;26.22;77.13;95492.13;4996745;28;20199;-56
2023/08/08 07:23:33;;;;;;;1999.90;999.90;;;;;;;27.40;71.87;95493.44;4996761;28;20246;-56
2023/08/08 07:25:59;;;;;;;1999.90;999.90;;;;;;;26.56;70.52;95491.00;4996388;28;20263;-59
2023/08/08 07:28:24;;;;;;;1999.90;999.90;;;;;;;27.12;70.51;95495.44;4997080;28;20254;-55
2023/08/08 07:30:49;;;;;;;1999.90;999.90;;;;;;;28.05;64.53;95491.81;4997055;28;20212;-56
2023/08/08 07:33:15;;;;;;;1999.90;999.90;;;;;;;28.20;62.99;95497.94;4996460;28;20295;-56
2023/08/08 07:35:40;;;;;;;1999.90;999.90;;;;;;;29.09;58.85;95497.50;4996494;28;20207;-56
2023/08/08 07:38:06;;;;;;;1999.90;999.90;;;;;;;28.18;61.12;95500.47;4996137;28;20286;-57
2023/08/08 07:40:31;;;;;;;1999.90;999.90;;;;;;;29.21;56.94;95496.13;4996832;28;20200;-56
2023/08/08 07:42:56;;;;;;;1999.90;999.90;;;;;;;30.02;54.16;95487.47;4997015;28;20168;-55
2023/08/08 07:45:22;;;;;;;1999.90;999.90;;;;;;;30.71;49.98;95485.66;4996556;28;20200;-57
2023/08/08 07:47:47;;;;;;;1999.90;999.90;;;;;;;30.68;52.00;95489.53;4996920;28;20238;-55
2023/08/08 07:50:13;;;;;;;1999.90;999.90;;;;;;;31.05;48.80;95492.34;4996316;28;20211;-56
2023/08/08 07:52:39;;;;;;;1999.90;999.90;;;;;;;30.57;47.79;95484.03;4996344;28;20200;-56
2023/08/08 07:55:05;;;;;;;1999.90;999.90;;;;;;;30.02;51.13;95479.03;4996332;28;20264;-55
2023/08/08 07:57:34;;;;;;;1999.90;999.90;;;;;;;30.69;50.72;95476.94;4996022;28;20195;-56
2023/08/08 08:00:05;;;;;;;1999.90;999.90;;;;;;;29.83;49.61;95466.94;4996092;28;20196;-56
2023/08/08 08:02:31;;;;;;;1999.90;999.90;;;;;;;30.29;49.83;95467.47;4996215;28;20206;-56
2023/08/08 08:04:56;;;;;;;1999.90;999.90;;;;;;;30.88;46.52;95466.47;4996139;28;20192;-55
2023/08/08 08:07:21;;;;;;;1999.90;999.90;;;;;;;30.99;46.52;95455.75;4996485;28;20199;-55
2023/08/08 08:09:47;;;;;;;1999.90;999.90;;;;;;;31.44;45.11;95450.19;4995499;28;20262;-56
2023/08/08 08:12:13;;;;;;;1999.90;999.90;;;;;;;31.44;45.60;95455.84;4996331;28;20248;-56
2023/08/08 08:14:38;;;;;;;1999.90;999.90;;;;;;;30.62;47.50;95450.09;4996317;28;20263;-56
2023/08/08 08:17:03;;;;;;;1999.90;999.90;;;;;;;30.97;45.59;95447.06;4996176;28;20268;-56
2023/08/08 08:19:29;;;;;;;1999.90;999.90;;;;;;;30.58;46.44;95444.00;4995999;28;20220;-55
2023/08/08 08:21:54;;;;;;;1999.90;999.90;;;;;;;30.95;43.42;95448.88;4995830;28;20214;-56
2023/08/08 08:24:20;;;;;;;1999.90;999.90;;;;;;;31.10;45.53;95446.38;4995231;28;20302;-55
2023/08/08 08:26:45;;;;;;;1999.90;999.90;;;;;;;31.06;45.00;95460.00;4995265;28;20211;-57
2023/08/08 08:29:10;;;;;;;1999.90;999.90;;;;;;;31.05;44.72;95453.63;4995374;28;20287;-53
2023/08/08 08:31:37;;;;;;;1999.90;999.90;;;;;;;30.40;43.17;95449.63;4995638;28;20203;-55
2023/08/08 08:34:03;;;;;;;1999.90;999.90;;;;;;;30.66;44.06;95458.25;4996102;28;20240;-55
2023/08/08 08:36:28;;;;;;;1999.90;999.90;;;;;;;30.50;43.11;95448.75;4995152;28;20199;-54
2023/08/08 08:38:53;;;;;;;1999.90;999.90;;;;;;;30.06;45.22;95448.50;4995430;28;20199;-54
2023/08/08 08:41:24;;;;;;;1999.90;999.90;;;;;;;30.38;44.13;95443.78;4995189;28;20199;-55
2023/08/08 08:43:50;;;;;;;1999.90;999.90;;;;;;;31.38;41.24;95443.88;4995017;28;20176;-55
2023/08/08 08:46:20;;;;;;;1999.90;999.90;;;;;;;30.08;43.38;95441.03;4995083;28;20199;-56
2023/08/08 08:48:47;;;;;;;1999.90;999.90;;;;;;;29.75;45.68;95440.66;4995126;28;20200;-57
2023/08/08 08:51:12;;;;;;;1999.90;999.90;;;;;;;30.02;46.53;95442.41;4995070;28;20293;-55
2023/08/08 08:53:39;;;;;;;1999.90;999.90;;;;;;;29.60;48.07;95429.03;4995132;28;20250;-54
2023/08/08 08:56:05;;;;;;;1999.90;999.90;;;;;;;29.62;49.02;95426.44;4994793;28;20251;-56
2023/08/08 08:58:30;;;;;;;1999.90;999.90;;;;;;;30.87;44.93;95416.94;4994759;28;20290;-55
2023/08/08 09:00:57;;;;;;;1999.90;999.90;;;;;;;30.92;43.94;95433.03;4994872;28;20207;-55
2023/08/08 09:03:24;;;;;;;1999.90;999.90;;;;;;;30.76;43.68;95432.00;4994890;28;20196;-56
2023/08/08 09:05:50;;;;;;;1999.90;999.90;;;;;;;29.81;44.79;95430.06;4994709;28;20219;-54
2023/08/08 09:08:16;;;;;;;1999.90;999.90;;;;;;;30.27;46.36;95418.53;4995181;28;20286;-54
2023/08/08 09:10:42;;;;;;;1999.90;999.90;;;;;;;29.62;47.86;95420.81;4994614;28;20299;-53
2023/08/08 09:13:07;;;;;;;1999.90;999.90;;;;;;;30.38;44.14;95412.75;4994730;28;20203;-55
2023/08/08 09:15:34;;;;;;;1999.90;999.90;;;;;;;29.77;45.02;95415.53;4994716;28;20196;-56
2023/08/08 09:18:00;;;;;;;1999.90;999.90;;;;;;;29.81;47.51;95413.16;4994883;28;20207;-54
2023/08/08 09:20:29;;;;;;;1999.90;999.90;;;;;;;30.00;45.73;95416.78;4994371;28;20282;-55
2023/08/08 09:22:54;;;;;;;1999.90;999.90;;;;;;;30.55;43.05;95410.47;4994417;28;20207;-53
2023/08/08 09:25:20;;;;;;;1999.90;999.90;;;;;;;30.60;43.09;95407.56;4994396;28;20196;-55
2023/08/08 09:27:45;;;;;;;1999.90;999.90;;;;;;;30.93;42.59;95421.22;4994373;28;20211;-54
2023/08/08 09:30:11;;;;;;;1999.90;999.90;;;;;;;29.91;43.31;95414.34;4994795;28;20212;-53
2023/08/08 09:32:37;;;;;;;1999.90;999.90;;;;;;;30.34;40.90;95413.06;4994443;28;20200;-56
2023/08/08 09:35:03;;;;;;;1999.90;999.90;;;;;;;30.89;41.04;95417.19;4994491;28;20195;-55
2023/08/08 09:37:29;;;;;;;1999.90;999.90;;;;;;;30.67;40.73;95411.84;4994711;28;20207;-56
2023/08/08 09:39:58;;;;;;;1999.90;999.90;;;;;;;30.81;40.92;95405.00;4994191;28;20203;-56
2023/08/08 09:42:26;;;;;;;1999.90;999.90;;;;;;;31.03;39.91;95404.66;4994807;28;20251;-56
2023/08/08 09:44:51;;;;;;;1999.90;999.90;;;;;;;30.74;39.60;95397.91;4994550;28;20199;-56
2023/08/08 09:47:17;;;;;;;1999.90;999.90;;;;;;;30.30;40.84;95403.41;4994525;28;20199;-55
2023/08/08 09:49:43;;;;;;;1999.90;999.90;;;;;;;29.22;43.43;95399.94;4993751;28;20211;-54
2023/08/08 09:52:09;;;;;;;1999.90;999.90;;;;;;;28.64;46.27;95406.22;4994079;28;20263;-55
2023/08/08 09:54:34;;;;;;;1999.90;999.90;;;;;;;29.02;48.10;95394.72;4993955;28;20283;-56
2023/08/08 09:57:00;;;;;;;1999.90;999.90;;;;;;;28.31;47.82;95398.75;4995582;28;20236;-55
2023/08/08 09:59:26;;;;;;;1999.90;999.90;;;;;;;27.90;52.42;95390.25;4998143;28;20196;-55
2023/08/08 10:01:52;;;;;;;1999.90;999.90;;;;;;;28.83;50.55;95390.25;4998262;28;20203;-56
2023/08/08 10:04:17;;;;;;;1999.90;999.90;;;;;;;28.64;48.54;95390.13;4998732;28;20199;-56
2023/08/08 10:06:43;;;;;;;1999.90;999.90;;;;;;;29.85;47.16;95382.66;4998117;28;20195;-55
2023/08/08 10:09:08;;;;;;;1999.90;999.90;;;;;;;29.42;47.35;95379.00;4998138;28;20219;-56
2023/08/08 10:11:35;;;;;;;1999.90;999.90;;;;;;;30.31;41.02;95383.13;4998467;28;20195;-56
2023/08/08 10:14:02;;;;;;;1999.90;999.90;;;;;;;30.10;41.44;95381.31;4998399;28;20196;-56
2023/08/08 10:16:31;;;;;;;1999.90;999.90;;;;;;;29.73;42.95;95387.66;4998349;28;20200;-57
2023/08/08 10:18:59;;;;;;;1999.90;999.90;;;;;;;30.62;40.75;95395.75;4998016;28;20262;-56
2023/08/08 10:21:25;;;;;;;1999.90;999.90;;;;;;;28.58;44.77;95392.22;4998219;28;20204;-55
2023/08/08 10:24:07;;;;;;;1999.90;999.90;;;;;;;28.12;48.23;95384.53;4997911;28;20284;-56
2023/08/08 10:26:33;;;;;;;1999.90;999.90;;;;;;;27.30;52.84;95393.19;4997711;28;20230;-55
2023/08/08 10:29:00;;;;;;;1999.90;999.90;;;;;;;26.54;58.97;95386.25;4997602;28;20235;-55
2023/08/08 10:31:26;;;;;;;1999.90;999.90;;;;;;;26.17;61.03;95377.28;4997393;28;20212;-56
2023/08/08 10:34:05;;;;;;;1999.90;999.90;;;;;;;25.16;63.67;95380.84;4997377;28;20282;-56
2023/08/08 10:36:44;;;;;;;1999.90;999.90;;;;;;;25.50;64.34;95387.44;4998031;28;20233;-55
2023/08/08 10:39:16;;;;;;;1999.90;999.90;;;;;;;26.03;60.45;95384.63;4997735;28;20226;-55
2023/08/08 10:41:49;;;;;;;1999.90;999.90;;;;;;;26.26;59.58;95386.22;4997693;28;20295;-55
2023/08/08 10:44:22;;;;;;;1999.90;999.90;;;;;;;26.60;60.40;95365.44;4997435;28;20255;-55